Groningen Airport Eelde

EHGG · Drenthe, The Netherlands

METAR history EHGG · Groningen Airport Eelde

Below you see METARs of the last few days. Select a year to browse through older METARs, from the year 2007 onwards.

December 4, 2022

Time Code Weather Temp. Visibility Ceiling Wind METAR/SPECI
14:55
M
2 °C 10 km+ 1,400 ft 060° 060° 12 kt METAR EHGG 041355Z AUTO 06012KT 9999 SCT012 BKN014 OVC017 02/M00 Q1019 TEMPO BKN014
14:25
M
2 °C 10 km+ 1,500 ft 060° 060° 10 kt METAR EHGG 041325Z AUTO 06010KT 020V090 9999 OVC015 02/M00 Q1019 TEMPO BKN014
13:55
M
2 °C 10 km+ 1,600 ft 070° 070° 11 kt METAR EHGG 041255Z AUTO 07011KT 9999 BKN016 OVC019 02/M01 Q1020 TEMPO BKN014
13:25
M
2 °C 10 km+ 1,800 ft 080° 080° 10 kt METAR EHGG 041225Z AUTO 08010KT 050V120 9999 OVC018 02/M01 Q1019 TEMPO BKN014
12:55
M
2 °C 10 km+ 1,700 ft 070° 070° 14 kt METAR EHGG 041155Z AUTO 07014KT 9999 FEW014 OVC017 02/M01 Q1020 BECMG BKN014
12:25
M
2 °C 10 km+ 2,000 ft 070° 070° 11 kt METAR EHGG 041125Z AUTO 07011KT 040V100 9999 OVC020 02/M01 Q1020 NOSIG
11:55
M
2 °C 10 km+ 2,000 ft 060° 060° 11 kt METAR EHGG 041055Z AUTO 06011KT 9999 FEW016 OVC020 02/M01 Q1020 TEMPO 7000 BKN014
11:25
M
2 °C 9 km 2,000 ft 060° 060° 11 kt METAR EHGG 041025Z AUTO 06011KT 030V090 9000 OVC020 02/M01 Q1020 TEMPO 7000 BKN014
10:55
M
1 °C 8 km 1,900 ft 060° 060° 10 kt METAR EHGG 040955Z AUTO 06010KT 8000 OVC019 01/M01 Q1020 TEMPO 8000
10:25
M
1 °C 7 km 1,400 ft 070° 070° 11 kt METAR EHGG 040925Z AUTO 07011KT 030V090 7000 SCT011 BKN014 OVC020 01/M01 Q1020 TEMPO 8000
09:55
M
0 °C 6 km 1,200 ft 070° 070° 11 kt METAR EHGG 040855Z AUTO 07011KT 6000 FEW009 SCT010 BKN012 00/M01 Q1020 TEMPO 6000 -SG BKN012
09:25
I
0 °C 4.5 km 1,000 ft 070° 070° 11 kt METAR EHGG 040825Z AUTO 07011KT 040V100 4500 DZ FEW008 OVC010 00/M01 Q1020 REFZRADZ TEMPO 6000 -SG BKN008
08:55
I
0 °C 3.4 km 800 ft 070° 070° 10 kt METAR EHGG 040755Z AUTO 07010KT 040V100 3400 -FZRA -SN FEW007 BKN008 OVC010 M00/M02 Q1020 TEMPO 4000 -SG BKN012
08:25
I
0 °C 3.4 km 1,800 ft 060° 060° 10 kt METAR EHGG 040725Z AUTO 06010KT 3400 -FZRA -SN FEW008 SCT010 BKN018 M00/M02 Q1020 TEMPO BKN012
07:55
I
0 °C 4.9 km 2,000 ft 070° 070° 9 kt METAR EHGG 040655Z AUTO 07009KT 040V100 4900 -FZRA -SN FEW008 OVC020 M00/M02 Q1020 TEMPO BKN012
07:25
M
0 °C 6 km 2,100 ft 060° 060° 8 kt METAR EHGG 040625Z AUTO 06008KT 6000 FEW010 OVC021 M00/M02 Q1020 TEMPO BKN010
06:55
M
0 °C 7 km 2,000 ft 070° 070° 8 kt METAR EHGG 040555Z AUTO 07008KT 040V100 7000 SCT010 OVC020 M00/M02 Q1020 TEMPO BKN010
06:25
M
0 °C 7 km 1,000 ft 080° 080° 8 kt METAR EHGG 040525Z AUTO 08008KT 050V110 7000 FEW009 OVC010 M00/M03 Q1020 TEMPO BKN020
05:55
M
0 °C 7 km 1,100 ft 080° 080° 9 kt METAR EHGG 040455Z AUTO 08009KT 040V120 7000 FEW009 OVC011 M00/M03 Q1020
05:25
M
0 °C 7 km 1,000 ft 070° 070° 8 kt METAR EHGG 040425Z AUTO 07008KT 7000 BKN010 OVC012 M00/M03 Q1020 REFZRA
04:55
M
0 °C 6 km 1,100 ft 070° 070° 9 kt METAR EHGG 040355Z AUTO 07009KT 040V100 6000 BKN011 BKN024 OVC029 M00/M03 Q1020
04:25
M
0 °C 7 km 2,200 ft 080° 080° 9 kt METAR EHGG 040325Z AUTO 08009KT 050V110 7000 FEW011 SCT013 BKN022 M00/M03 Q1020
03:55
M
0 °C 8 km 2,700 ft 080° 080° 8 kt METAR EHGG 040255Z AUTO 08008KT 040V120 8000 OVC027 M00/M03 Q1020
03:25
M
0 °C 8 km 2,800 ft 070° 070° 9 kt METAR EHGG 040225Z AUTO 07009KT 040V100 8000 OVC028 M00/M03 Q1020
02:55
V
0 °C 10 km+ 3,100 ft 080° 080° 9 kt METAR EHGG 040155Z AUTO 08009KT 050V110 9999 FEW017 OVC031 00/M03 Q1020
02:25
V
0 °C 10 km+ 3,500 ft 080° 080° 10 kt METAR EHGG 040125Z AUTO 08010KT 040V110 9999 FEW018 OVC035 00/M04 Q1020
01:55
V
0 °C 10 km+ 3,800 ft 070° 070° 9 kt METAR EHGG 040055Z AUTO 07009KT 040V100 9999 OVC038 00/M03 Q1020
01:25
V
1 °C 10 km+ 3,700 ft 080° 080° 8 kt METAR EHGG 040025Z AUTO 08008KT 040V110 9999 OVC037/// 01/M03 Q1020
00:55
V
1 °C 10 km+ 3,800 ft 070° 070° 10 kt METAR EHGG 032355Z AUTO 07010KT 9999 FEW016 OVC038 01/M03 Q1020
00:25
V
1 °C 9 km 4,000 ft 080° 080° 8 kt METAR EHGG 032325Z AUTO 08008KT 040V110 9000 FEW014 OVC040 01/M02 Q1020

December 3, 2022

Time Code Weather Temp. Visibility Ceiling Wind METAR/SPECI
23:55
V
0 °C 9 km 4,100 ft 080° 080° 9 kt METAR EHGG 032255Z AUTO 08009KT 050V110 9000 SCT016 OVC041 00/M02 Q1020
23:25
V
0 °C 9 km 4,000 ft 080° 080° 8 kt METAR EHGG 032225Z AUTO 08008KT 050V110 9000 SCT016 OVC040 00/M03 Q1021
22:55
V
0 °C 10 km+ 3,800 ft 090° 090° 11 kt METAR EHGG 032155Z AUTO 09011KT 050V120 9999 SCT016 OVC038 00/M03 Q1021 NOSIG
22:25
M
1 °C 10 km+ 1,600 ft 090° 090° 12 kt METAR EHGG 032125Z AUTO 09012KT 050V120 9999 OVC016 01/M03 Q1021 NOSIG
21:55
M
1 °C 10 km+ 1,700 ft 090° 090° 10 kt METAR EHGG 032055Z AUTO 09010KT 050V160 9999 OVC017 01/M02 Q1021 NOSIG
21:25
M
1 °C 10 km+ 1,700 ft 080° 080° 9 kt METAR EHGG 032025Z AUTO 08009KT 050V130 9999 OVC017 01/M02 Q1021 NOSIG
20:55
M
1 °C 10 km+ 2,000 ft 070° 070° 12 kt METAR EHGG 031955Z AUTO 07012KT 030V140 9999 OVC020 01/M02 Q1021 NOSIG
20:25
M
1 °C 10 km+ 2,000 ft 070° 070° 11 kt METAR EHGG 031925Z AUTO 07011KT 040V110 9999 BKN020 OVC024 01/M02 Q1021 NOSIG
19:55
M
1 °C 10 km+ 2,200 ft 070° 070° 11 kt METAR EHGG 031855Z AUTO 07011KT 040V120 9999 SCT018 OVC022 01/M01 Q1021 NOSIG
19:25
M
1 °C 9 km 2,100 ft 060° 060° 9 kt METAR EHGG 031825Z AUTO 06009KT 030V090 9000 SCT017 OVC021 01/M01 Q1021 NOSIG
18:55
M
1 °C 10 km+ 1,700 ft 070° 070° 9 kt METAR EHGG 031755Z AUTO 07009KT 040V100 9999 BKN017 OVC020 01/M02 Q1021 NOSIG
18:25
M
1 °C 10 km+ 1,700 ft 070° 070° 10 kt METAR EHGG 031725Z AUTO 07010KT 9999 BKN017 OVC020 01/M02 Q1021 NOSIG
17:55
M
1 °C 10 km+ 1,700 ft 070° 070° 8 kt METAR EHGG 031655Z AUTO 07008KT 040V100 9999 OVC017 01/M02 Q1021 NOSIG
17:25
M
1 °C 10 km+ 1,700 ft 070° 070° 10 kt METAR EHGG 031625Z AUTO 07010KT 020V100 9999 BKN017 BKN021 01/M02 Q1021 NOSIG
16:55
V
1 °C 10 km+ - 070° 070° 8 kt METAR EHGG 031555Z AUTO 07008KT 9999 FEW021 01/M02 Q1021 NOSIG
16:25
M
1 °C 10 km+ 2,200 ft 070° 070° 11 kt METAR EHGG 031525Z AUTO 07011KT 040V120 9999 SCT018 OVC022 01/M02 Q1022 NOSIG
15:55
M
1 °C 10 km+ 1,600 ft 070° 070° 12 kt METAR EHGG 031455Z AUTO 07012KT 9999 BKN016 OVC020 01/M02 Q1022 NOSIG
15:25
M
2 °C 10 km+ 2,000 ft 080° 080° 13 kt METAR EHGG 031425Z AUTO 08013KT 040V110 9999 SCT017 OVC020 02/M02 Q1022 TEMPO BKN014
14:55
V
2 °C 10 km+ - 070° 070° 11 kt METAR EHGG 031355Z AUTO 07011KT 040V100 9999 NSC 02/M02 Q1022 TEMPO BKN014
14:25
V
2 °C 10 km+ - 080° 080° 12 kt METAR EHGG 031325Z AUTO 08012KT 040V100 9999 FEW017 02/M02 Q1022 TEMPO BKN014
13:55
V
2 °C 10 km+ - 080° 080° 11 kt METAR EHGG 031255Z AUTO 08011KT 030V120 9999 FEW017 02/M02 Q1022 TEMPO BKN014
13:25
V
2 °C 10 km+ - 070° 070° 10 kt METAR EHGG 031225Z AUTO 07010KT 040V110 9999 FEW016 02/M01 Q1022 TEMPO BKN014
12:55
V
2 °C 10 km+ - 070° 070° 11 kt METAR EHGG 031155Z AUTO 07011KT 040V110 9999 FEW015 02/M01 Q1023 TEMPO BKN014
12:25
M
2 °C 10 km+ 1,900 ft 070° 070° 11 kt METAR EHGG 031125Z AUTO 07011KT 040V100 9999 SCT015 BKN019 02/M01 Q1023 TEMPO BKN014
11:55
M
2 °C 10 km+ 1,500 ft 060° 060° 12 kt METAR EHGG 031055Z AUTO 06012KT 9999 BKN015 02/M01 Q1023 TEMPO BKN014
11:25
V
2 °C 10 km+ - 070° 070° 12 kt METAR EHGG 031025Z AUTO 07012KT 030V100 9999 FEW014 02/M01 Q1023 TEMPO BKN014
10:55
M
2 °C 10 km+ 1,300 ft 070° 070° 10 kt METAR EHGG 030955Z AUTO 07010KT 9999 SCT011 BKN013 02/M00 Q1024 TEMPO BKN018
10:25
V
2 °C 10 km+ - 080° 080° 8 kt METAR EHGG 030925Z AUTO 08008KT 050V110 9999 FEW016 02/M00 Q1024 NOSIG
09:55
V
2 °C 10 km+ - 080° 080° 10 kt METAR EHGG 030855Z AUTO 08010KT 050V110 9999 NSC 02/M01 Q1024 TEMPO BKN016
09:25
V
2 °C 10 km+ - 070° 070° 8 kt METAR EHGG 030825Z AUTO 07008KT 9999 FEW013 SCT016 02/M00 Q1024 TEMPO BKN016
08:55
M
3 °C 10 km+ 1,600 ft 070° 070° 12 kt METAR EHGG 030755Z AUTO 07012KT 040V100 9999 SCT014 OVC016 03/M00 Q1024 TEMPO BKN014
08:25
M
3 °C 10 km+ 1,600 ft 060° 060° 11 kt METAR EHGG 030725Z AUTO 06011KT 020V100 9999 SCT013 BKN016 03/00 Q1024 NOSIG
07:55
V
3 °C 10 km+ - 070° 070° 10 kt METAR EHGG 030655Z AUTO 07010KT 040V100 9999 FEW014 SCT016 03/00 Q1024 NOSIG
07:25
V
3 °C 10 km+ - 070° 070° 13 kt METAR EHGG 030625Z AUTO 07013KT 040V100 9999 FEW014 SCT020 03/M00 Q1024 NOSIG
06:55
V
3 °C 10 km+ - 060° 060° 14 kt METAR EHGG 030555Z AUTO 06014KT 040V100 9999 FEW015 03/00 Q1024 NOSIG
06:25
V
3 °C 10 km+ - 060° 060° 14 kt METAR EHGG 030525Z AUTO 06014KT 020V090 9999 FEW020 03/00 Q1024 NOSIG
05:55
M
3 °C 10 km+ 1,800 ft 060° 060° 12 kt METAR EHGG 030455Z AUTO 06012KT 9999 BKN018 OVC021 03/00 Q1024
05:25
M
3 °C 10 km+ 2,000 ft 060° 060° 11 kt METAR EHGG 030425Z AUTO 06011KT 9999 BKN020 OVC024 03/00 Q1024
04:55
V
3 °C 10 km+ - 060° 060° 13 kt METAR EHGG 030355Z AUTO 06013KT 9999 SCT023 03/00 Q1024
04:25
V
3 °C 10 km+ - 070° 070° 9 kt METAR EHGG 030325Z AUTO 07009KT 9999 FEW022 SCT026 03/01 Q1024
03:55
M
4 °C 10 km+ 2,600 ft 070° 070° 9 kt METAR EHGG 030255Z AUTO 07009KT 030V100 9999 FEW016 SCT023 BKN026 04/01 Q1024
03:25
M
4 °C 10 km+ 1,600 ft 070° 070° 11 kt METAR EHGG 030225Z AUTO 07011KT 040V100 9999 BKN016 BKN019 OVC024 04/01 Q1025
02:55
M
4 °C 10 km+ 1,700 ft 070° 070° 11 kt METAR EHGG 030155Z AUTO 07011KT 040V100 9999 BKN017 OVC023 04/01 Q1025
02:25
V
4 °C 10 km+ - 060° 060° 11 kt METAR EHGG 030125Z AUTO 06011KT 030V090 9999 FEW016 04/01 Q1025
01:55
V
4 °C 10 km+ - 060° 060° 14 kt METAR EHGG 030055Z AUTO 06014KT 030V090 9999 FEW017 04/01 Q1025
01:25
M
4 °C 10 km+ 1,600 ft 040° 040° 7 kt METAR EHGG 030025Z AUTO 04007KT 9999 FEW013/// BKN016/// OVC019/// 04/02 Q1025
00:55
M
3 °C 10 km+ 1,600 ft 040° 040° 6 kt METAR EHGG 022355Z AUTO 04006KT 9999 SCT013 BKN016 BKN020 03/01 Q1025
00:25
M
3 °C 10 km+ 1,700 ft 030° 030° 6 kt METAR EHGG 022325Z AUTO 03006KT 9999 FEW013 BKN017 OVC024 03/00 Q1025

December 2, 2022

Time Code Weather Temp. Visibility Ceiling Wind METAR/SPECI
23:55
M
3 °C 10 km+ 1,400 ft 030° 030° 5 kt METAR EHGG 022255Z AUTO 03005KT 330V060 9999 BKN014 OVC016 03/M00 Q1026
23:25
M
3 °C 10 km+ 1,600 ft 050° 050° 8 kt METAR EHGG 022225Z AUTO 05008KT 020V080 9999 OVC016 03/M00 Q1026
22:55
M
3 °C 10 km+ 1,900 ft 050° 050° 8 kt METAR EHGG 022155Z AUTO 05008KT 020V080 9999 OVC019 03/M00 Q1026
22:25
M
2 °C 10 km+ 2,200 ft 050° 050° 8 kt METAR EHGG 022125Z AUTO 05008KT 9999 SCT019 OVC022 02/M01 Q1026 NOSIG
21:55
M
2 °C 10 km+ 2,500 ft 050° 050° 9 kt METAR EHGG 022055Z AUTO 05009KT 9999 OVC025 02/M01 Q1027 NOSIG
21:25
M
2 °C 10 km+ 2,300 ft 050° 050° 9 kt METAR EHGG 022025Z AUTO 05009KT 020V080 9999 BKN023 OVC027 02/M01 Q1027 NOSIG
20:55
M
2 °C 10 km+ 2,500 ft 070° 070° 8 kt METAR EHGG 021955Z AUTO 07008KT 9999 OVC025 02/M01 Q1027 NOSIG
20:25
M
2 °C 10 km+ 1,900 ft 080° 080° 11 kt METAR EHGG 021925Z AUTO 08011KT 050V120 9999 SCT016 BKN019 OVC023 02/M02 Q1027 NOSIG
19:55
M
2 °C 10 km+ 1,600 ft 060° 060° 11 kt METAR EHGG 021855Z AUTO 06011KT 030V090 9999 OVC016 02/M01 Q1027 NOSIG
19:25
M
2 °C 10 km+ 1,700 ft 070° 070° 11 kt METAR EHGG 021825Z AUTO 07011KT 9999 BKN017 OVC020 02/M01 Q1027 NOSIG
18:55
M
2 °C 9 km 1,600 ft 060° 060° 12 kt METAR EHGG 021755Z AUTO 06012KT 020V100 9000 BKN016 OVC019 02/M01 Q1027 NOSIG
18:25
M
2 °C 7 km 2,000 ft 060° 060° 11 kt METAR EHGG 021725Z AUTO 06011KT 030V090 7000 SCT017 OVC020 02/M00 Q1027 BECMG 9999
17:55
M
2 °C 7 km 1,800 ft 060° 060° 11 kt METAR EHGG 021655Z AUTO 06011KT 7000 FEW015 BKN018 OVC022 02/M00 Q1026 NOSIG
17:25
M
2 °C 7 km 2,300 ft 060° 060° 9 kt METAR EHGG 021625Z AUTO 06009KT 7000 OVC023 02/M00 Q1026 NOSIG
16:55
M
2 °C 7 km 2,400 ft 070° 070° 10 kt METAR EHGG 021555Z AUTO 07010KT 7000 FEW015 OVC024 02/M00 Q1026 NOSIG
16:25
M
2 °C 7 km 1,500 ft 070° 070° 9 kt METAR EHGG 021525Z AUTO 07009KT 7000 FEW013 BKN015 OVC026 02/M01 Q1026 TEMPO BKN014
15:55
M
2 °C 7 km 1,100 ft 070° 070° 11 kt METAR EHGG 021455Z AUTO 07011KT 040V100 7000 BKN011 OVC014 02/M01 Q1026 BECMG BKN017
15:25
M
2 °C 8 km 1,100 ft 080° 080° 11 kt METAR EHGG 021425Z AUTO 08011KT 050V120 8000 BKN011/// OVC014/// 02/M01 Q1026 BECMG BKN017
14:55
M
2 °C 7 km 1,100 ft 070° 070° 8 kt METAR EHGG 021355Z AUTO 07008KT 040V110 7000 OVC011 02/M00 Q1026 BECMG 9999 BKN017
14:25
M
2 °C 7 km 1,200 ft 070° 070° 12 kt METAR EHGG 021325Z AUTO 07012KT 7000 SCT010 BKN012 OVC014 02/M00 Q1026 BECMG 9999 BKN017
13:55
M
2 °C 7 km 1,200 ft 070° 070° 11 kt METAR EHGG 021255Z AUTO 07011KT 040V110 7000 SCT010/// BKN012/// OVC015/// 02/M00 Q1026 BECMG 9999 BKN017
13:25
M
2 °C 6 km 1,000 ft 070° 070° 11 kt METAR EHGG 021225Z AUTO 07011KT 040V100 6000 BKN010 OVC012 02/M00 Q1026 BECMG 9999 BKN017
12:55
M
2 °C 6 km 1,000 ft 070° 070° 12 kt METAR EHGG 021155Z AUTO 07012KT 040V100 6000 BKN010 OVC012 02/00 Q1026 BECMG 9999 BKN017
12:25
M
2 °C 6 km 1,000 ft 060° 060° 12 kt METAR EHGG 021125Z AUTO 06012KT 6000 FEW009 OVC010 02/M00 Q1026 TEMPO BKN009
11:55
M
2 °C 6 km 1,000 ft 070° 070° 11 kt METAR EHGG 021055Z AUTO 07011KT 6000 FEW009 OVC010 02/M00 Q1026 TEMPO BKN009
11:25
M
2 °C 6 km 1,200 ft 060° 060° 12 kt METAR EHGG 021025Z AUTO 06012KT 6000 SCT010 BKN012 OVC014 02/M00 Q1026 TEMPO 9000 BKN040
10:55
M
2 °C 6 km 1,000 ft 070° 070° 11 kt METAR EHGG 020955Z AUTO 07011KT 6000 FEW009 OVC010 02/00 Q1026 TEMPO 9000 BKN040

We and third parties follow your internet behavior on our website with cookies. If you continue, we assume you agree with our cookie policy.